Latest Weather Observations for Lady Elliot Island

IDQ60801

Issued at 6:02 pm EST Sunday 26 June 2016 (issued every 30 minutes, with the page automatically refreshed every 10 minutes)

About weather observations | Map of weather stations | Latest weather observations for QLD | Other Formats
Station Details ID: 039059 Name: LADY ELLIOT ISLAND Lat: -24.11 Lon: 152.72 Height: 3.6 m
Data from the previous 72 hours. | See also: Recent months at Lady Elliot Island
Date/Time
EST
Temp
°C
App
Temp
°C
Dew
Point
°C
Rel
Hum
%
Delta-T
°C
Wind Press
QNH
hPa
Press
MSL
hPa
Rain since
9am
mm
Dir  Spd
km/h
Gust
km/h
Spd
kts
Gust
kts
26/06:00pm 18.7 18.6 13.3 71 3.1 NE 6 11 3 6 1016.8 1016.8 0.0
26/05:30pm 18.7 18.4 12.7 68 3.4 ENE 6 9 3 5 1016.6 1016.6 0.0
26/05:00pm 19.4 18.9 12.7 65 3.8 NNE 7 11 4 6 1016.8 1016.8 0.0
26/04:30pm 20.3 20.0 12.8 62 4.2 NNE 6 9 3 5 1016.7 1016.7 0.0
26/04:00pm 20.6 20.1 12.6 60 4.5 NNE 7 13 4 7 1016.6 1016.6 0.0
26/03:30pm 20.4 20.0 12.4 60 4.5 ENE 6 11 3 6 1016.6 1016.6 0.0
26/03:00pm 20.1 19.6 13.8 67 3.6 SE 9 15 5 8 1016.7 1016.7 0.0
26/02:30pm 20.1 18.5 14.0 68 3.5 SE 15 19 8 10 1016.6 1016.6 0.0
26/02:00pm 19.9 18.7 14.0 69 3.4 SE 13 20 7 11 1016.9 1016.9 0.0
26/01:30pm 20.0 18.5 14.1 69 3.4 SE 15 19 8 10 1017.3 1017.3 0.0
26/01:00pm 19.6 17.9 13.5 68 3.5 SE 15 22 8 12 1017.8 1017.8 0.0
26/12:30pm 20.1 18.7 14.5 70 3.3 SSE 15 22 8 12 1018.4 1018.4 0.0
26/12:00pm 19.6 17.9 13.5 68 3.5 SSE 15 20 8 11 1019.0 1019.0 0.0
26/11:30am 19.6 17.7 13.1 66 3.7 SE 15 20 8 11 1019.4 1019.4 0.0
26/11:00am 19.6 17.9 13.5 68 3.5 SSE 15 24 8 13 1019.8 1019.8 0.0
26/10:30am 19.1 17.1 12.8 67 3.5 SSE 15 20 8 11 1019.9 1019.9 0.0
26/10:00am 19.0 16.7 13.0 68 3.4 SE 17 24 9 13 1019.7 1019.7 0.0
26/09:30am 18.7 16.3 12.7 68 3.4 SE 17 24 9 13 1020.0 1020.0 0.0
26/09:00am 18.4 15.8 11.9 66 3.6 SSE 17 24 9 13 1020.6 1020.6 0.0
26/08:30am 18.2 15.2 12.0 67 3.4 SSE 19 26 10 14 1020.6 1020.6 0.0
26/08:00am 17.5 14.6 11.1 66 3.4 SE 17 24 9 13 1019.8 1019.8 0.0
26/07:30am 17.0 13.8 11.1 68 3.2 SE 19 26 10 14 1019.5 1019.5 0.0
26/07:00am 16.5 14.0 11.0 70 2.9 SSE 15 20 8 11 1019.5 1019.5 0.0
26/06:30am 16.2 14.3 9.2 63 3.6 S 9 19 5 10 1019.1 1019.1 0.0
26/06:00am 15.4 13.5 9.1 66 3.2 SE 9 13 5 7 1018.8 1018.8 0.0
26/05:30am 15.7 12.9 8.7 63 3.6 ESE 13 19 7 10 1018.6 1018.6 0.0
26/05:00am 15.7 12.9 8.7 63 3.6 ESE 13 20 7 11 1018.3 1018.3 0.0
26/04:30am 16.0 12.7 8.2 60 3.9 ESE 15 20 8 11 1018.2 1018.2 0.0
26/04:00am 16.1 12.3 7.6 57 4.2 ESE 17 22 9 12 1017.8 1017.8 0.0
26/03:30am 16.1 12.3 5.7 50 5.0 SE 15 22 8 12 1018.0 1018.0 0.0
26/03:00am 16.4 12.0 6.5 52 4.8 ESE 19 22 10 12 1017.9 1017.9 0.0
26/02:30am 16.0 12.1 7.2 56 4.4 SE 17 20 9 11 1017.8 1017.8 0.0
26/02:00am 15.7 12.6 7.2 57 4.2 ESE 13 19 7 10 1018.0 1018.0 0.0
26/01:30am 16.4 13.0 7.6 56 4.4 SE 15 22 8 12 1018.1 1018.1 0.0
26/01:00am 16.5 12.8 8.0 57 4.3 SE 17 24 9 13 1018.4 1018.4 0.0
26/12:30am 16.2 12.9 8.2 59 4.0 SE 15 20 8 11 1019.0 1019.0 0.0
26/12:00am 16.5 13.2 8.2 58 4.2 SE 15 22 8 12 1019.2 1019.2 0.0
 
Date/Time
EST
Temp
°C
App
Temp
°C
Dew
Point
°C
Rel
Hum
%
Delta-T
°C
Wind Press
QNH
hPa
Press
MSL
hPa
Rain since
9am
mm
Dir  Spd
km/h
Gust
km/h
Spd
kts
Gust
kts
25/11:30pm 16.7 13.7 7.6 55 4.6 SE 13 20 7 11 1019.4 1019.4 0.0
25/11:00pm 17.0 13.7 6.5 50 5.1 S 13 19 7 10 1019.5 1019.5 0.0
25/10:30pm 17.1 13.0 6.0 48 5.4 SSE 17 24 9 13 1019.5 1019.5 0.0
25/10:00pm 17.0 13.4 6.8 51 5.0 SSE 15 22 8 12 1019.4 1019.4 0.0
25/09:30pm 17.1 13.5 6.9 51 5.1 SSE 15 22 8 12 1019.3 1019.3 0.0
25/09:00pm 17.0 13.1 7.1 52 4.9 S 17 24 9 13 1019.2 1019.2 0.0
25/08:30pm 17.0 13.0 6.5 50 5.2 S 17 24 9 13 1019.1 1019.1 0.0
25/08:00pm 16.7 13.2 7.1 53 4.8 S 15 24 8 13 1019.2 1019.2 0.0
25/07:30pm 16.6 12.7 7.0 53 4.8 S 17 26 9 14 1019.0 1019.0 0.0
25/07:00pm 15.8 12.7 7.1 56 4.3 S 13 22 7 12 1018.6 1018.6 0.0
25/06:30pm 16.0 12.4 6.7 54 4.6 S 15 22 8 12 1018.3 1018.3 0.0
25/06:00pm 15.8 12.9 6.3 53 4.6 S 11 20 6 11 1018.2 1018.2 0.0
25/05:30pm 16.0 12.8 6.7 54 4.6 S 13 19 7 10 1018.2 1018.2 0.0
25/05:00pm 16.0 12.3 6.4 53 4.7 S 15 24 8 13 1017.9 1017.9 0.0
25/04:30pm 16.5 12.5 6.6 52 4.9 S 17 26 9 14 1017.8 1017.8 0.0
25/04:00pm 16.8 12.9 7.2 53 4.8 S 17 26 9 14 1017.5 1017.5 0.0
25/03:30pm 16.8 12.9 6.9 52 4.9 S 17 26 9 14 1017.2 1017.2 0.0
25/03:00pm 16.8 12.4 7.4 54 4.7 SSW 20 30 11 16 1017.1 1017.1 0.0
25/02:30pm 17.1 12.9 7.5 53 4.8 S 19 28 10 15 1017.1 1017.1 0.0
25/02:00pm 17.0 12.5 7.1 52 4.9 SSW 20 30 11 16 1017.5 1017.5 0.0
25/01:30pm 17.2 12.9 7.8 54 4.8 S 20 30 11 16 1017.8 1017.8 0.0
25/01:00pm 17.2 12.6 8.1 55 4.6 SSW 22 35 12 19 1017.8 1017.8 0.0
25/12:30pm 16.9 11.6 6.7 51 5.0 S 24 35 13 19 1018.3 1018.3 0.0
25/12:00pm 16.7 11.2 7.4 54 4.6 SSW 26 35 14 19 1018.7 1018.7 0.0
25/11:30am 16.7 10.8 7.6 55 4.6 SSW 28 43 15 23 1018.9 1018.9 0.0
25/11:00am 17.0 11.8 8.7 58 4.3 SSW 26 39 14 21 1019.2 1019.2 0.0
25/10:30am 16.6 11.3 8.6 59 4.1 SSW 26 35 14 19 1019.6 1019.6 0.0
25/10:00am 16.2 9.5 7.2 55 4.5 SSW 32 43 17 23 1019.4 1019.4 0.0
25/09:30am 16.1 10.1 7.1 55 4.5 S 28 39 15 21 1019.8 1019.8 0.0
25/09:00am 15.9 10.1 7.9 59 4.0 SSW 28 43 15 23 1019.5 1019.5 0.6
25/08:30am 15.4 9.4 6.9 57 4.2 SSW 28 43 15 23 1019.4 1019.4 0.6
25/08:14am 15.4 9.5 7.4 59 4.0 SSW 28 48 15 26 1019.2 1019.2 0.6
25/08:00am 15.2 8.9 7.5 60 3.8 SSW 30 43 16 23 1019.1 1019.1 0.6
25/07:30am 15.1 9.2 7.6 61 3.7 SSW 28 46 15 25 1019.0 1019.0 0.6
25/07:00am 14.8 7.4 6.9 59 3.8 SSW 35 54 19 29 1018.4 1018.4 0.6
25/06:40am 14.9 7.2 7.2 60 3.8 SSW 37 56 20 30 1018.1 1018.1 0.6
25/06:30am 14.9 6.7 6.7 58 4.0 SSW 39 56 21 30 1018.1 1018.1 0.6
25/06:00am 15.3 7.6 7.3 59 3.9 SSW 37 56 20 30 1017.5 1017.5 0.6
25/05:50am 15.5 8.7 7.8 60 3.8 SSW 33 52 18 28 1017.5 1017.5 0.6
25/05:30am 15.7 9.1 8.4 62 3.7 SSW 33 48 18 26 1017.0 1017.0 0.6
25/05:07am 16.3 10.6 9.7 65 3.4 SSW 30 50 16 27 1016.8 1016.8 0.6
25/05:00am 16.2 10.6 8.7 61 3.8 SSW 28 39 15 21 1016.6 1016.6 0.6
25/04:49am 16.4 10.9 9.1 62 3.8 SSW 28 48 15 26 1016.5 1016.5 0.6
25/04:30am 16.7 11.3 9.4 62 3.8 SSW 28 41 15 22 1016.2 1016.2 0.6
25/04:04am 16.8 11.3 9.2 61 3.9 SSW 28 46 15 25 1016.0 1016.0 0.6
25/04:00am 16.9 10.6 9.1 60 4.0 SW 32 46 17 25 1016.0 1016.0 0.6
25/03:30am 17.3 10.9 8.7 57 4.4 SW 32 43 17 23 1015.9 1015.9 0.6
25/03:08am 17.4 11.2 9.3 59 4.2 SSW 32 50 17 27 1015.8 1015.8 0.6
25/03:00am 17.5 11.8 9.7 60 4.1 SSW 30 44 16 24 1015.8 1015.8 0.6
25/02:33am 17.9 12.5 9.5 58 4.4 SSW 28 48 15 26 1016.0 1016.0 0.6
25/02:30am 18.0 12.8 10.4 61 4.1 SSW 28 43 15 23 1016.0 1016.0 0.6
25/02:00am 18.3 12.3 10.7 61 4.1 SSW 33 50 18 27 1015.9 1015.9 0.6
25/01:30am 18.5 12.4 11.6 64 3.8 SSW 35 54 19 29 1016.0 1016.0 0.6
25/01:00am 19.6 14.8 14.0 70 3.2 SSW 32 50 17 27 1015.9 1015.9 0.6
25/12:30am 20.4 16.2 14.7 70 3.3 SSW 30 41 16 22 1015.7 1015.7 0.6
25/12:00am 21.5 18.5 14.9 66 3.9 SW 24 35 13 19 1015.6 1015.6 0.6
 
Date/Time
EST
Temp
°C
App
Temp
°C
Dew
Point
°C
Rel
Hum
%
Delta-T
°C
Wind Press
QNH
hPa
Press
MSL
hPa
Rain since
9am
mm
Dir  Spd
km/h
Gust
km/h
Spd
kts
Gust
kts
24/11:30pm 21.9 19.7 16.0 69 3.6 SW 22 33 12 18 1015.4 1015.4 0.6
24/11:00pm 21.7 22.6 18.3 81 2.1 W 11 17 6 9 1015.0 1015.0 0.6
24/10:30pm 21.4 22.1 18.0 81 2.1 NW 11 17 6 9 1014.9 1014.9 0.6
24/10:00pm 21.5 23.0 18.9 85 1.6 NW 9 15 5 8 1015.0 1015.0 0.6
24/09:30pm 21.4 22.4 18.6 84 1.8 NW 11 17 6 9 1014.9 1014.9 0.6
24/09:00pm 21.3 22.7 18.7 85 1.6 NNW 9 13 5 7 1014.8 1014.8 0.6
24/08:30pm 20.9 22.0 18.1 84 1.7 NW 9 11 5 6 1014.7 1014.7 0.6
24/08:00pm 20.3 22.1 18.8 91 0.9 NW 7 9 4 5 1014.5 1014.5 0.6
24/07:30pm 19.1 21.6 17.2 89 1.2 CALM 0 0 0 0 1014.2 1014.2 0.6
24/07:00pm 20.2 22.8 18.5 90 1.1 WSW 2 7 1 4 1013.9 1013.9 0.6
24/06:30pm 20.5 23.6 18.6 89 1.2 CALM 0 0 0 0 1013.7 1013.7 0.6
24/06:00pm 20.7 23.0 18.5 87 1.4 SW 4 7 2 4 1013.3 1013.3 0.6
24/05:30pm 21.3 23.8 19.0 87 1.5 SW 4 7 2 4 1012.8 1012.8 0.6
24/05:00pm 21.6 24.5 19.0 85 1.6 SSW 2 7 1 4 1012.3 1012.3 0.6
24/04:30pm 22.1 23.9 19.5 85 1.7 SW 9 11 5 6 1012.5 1012.5 0.6
24/04:00pm 22.3 24.1 19.5 84 1.8 SW 9 13 5 7 1012.3 1012.3 0.6
24/03:30pm 22.6 23.8 19.9 85 1.7 SW 13 17 7 9 1012.2 1012.2 0.6
24/03:00pm 23.2 24.4 20.0 82 2.1 WSW 13 20 7 11 1012.0 1012.0 0.6
24/02:30pm 22.8 24.0 20.0 84 1.8 WSW 13 22 7 12 1012.0 1012.0 0.6
24/02:00pm 22.8 23.7 20.0 84 1.8 WSW 15 20 8 11 1011.9 1011.9 0.6
24/01:30pm 23.2 24.6 20.3 84 1.9 WSW 13 22 7 12 1012.1 1012.1 0.6
24/01:00pm 23.7 25.1 21.0 85 1.8 W 15 20 8 11 1012.3 1012.3 0.6
24/12:30pm 22.6 23.7 20.5 88 1.4 W 15 20 8 11 1012.8 1012.8 0.6
24/12:00pm 22.3 23.6 20.9 92 0.9 W 15 20 8 11 1013.1 1013.1 0.6
24/11:30am 23.5 24.1 21.0 86 1.6 WNW 19 24 10 13 1013.5 1013.5 0.0
24/11:00am 23.6 23.9 20.5 83 2.0 WNW 19 24 10 13 1014.1 1014.1 0.0
24/10:30am 24.0 24.7 20.5 81 2.3 NW 17 22 9 12 1014.3 1014.3 0.0
24/10:00am 24.3 25.9 20.8 81 2.3 NW 13 20 7 11 1014.6 1014.6 0.0
24/09:30am 24.3 25.8 20.6 80 2.4 NW 13 19 7 10 1014.5 1014.5 0.0
24/09:00am 23.5 24.7 20.0 81 2.3 NW 13 20 7 11 1014.6 1014.6 0.0
24/08:30am 23.0 24.1 19.6 81 2.2 NNW 13 20 7 11 1014.3 1014.3 0.0
24/08:00am 22.8 23.7 19.2 80 2.3 NW 13 17 7 9 1014.2 1014.2 0.0
24/07:30am 22.6 22.7 19.2 81 2.2 NW 17 24 9 13 1014.1 1014.1 0.0
24/07:00am 22.4 22.6 18.6 79 2.4 NW 15 22 8 12 1013.9 1013.9 0.0
24/06:30am 22.0 22.3 18.8 82 2.0 NW 15 20 8 11 1013.8 1013.8 0.0
24/06:00am 22.1 22.3 18.5 80 2.3 NW 15 22 8 12 1013.4 1013.4 0.0
24/05:30am 22.1 21.6 18.7 81 2.1 NW 19 24 10 13 1013.3 1013.3 0.0
24/05:00am 21.8 22.7 18.4 81 2.1 NW 11 17 6 9 1012.9 1012.9 0.0
24/04:30am 21.9 22.5 18.5 81 2.1 NW 13 20 7 11 1013.0 1013.0 0.0
24/04:00am 21.9 22.8 18.3 80 2.2 NW 11 17 6 9 1012.9 1012.9 0.0
24/03:30am 22.0 22.4 18.2 79 2.4 NNW 13 19 7 10 1012.9 1012.9 0.0
24/03:00am 22.0 22.1 17.4 75 2.8 NNW 13 19 7 10 1013.2 1013.2 0.0
24/02:30am 22.0 22.6 17.8 77 2.6 NNW 11 17 6 9 1013.4 1013.4 0.0
24/02:00am 21.9 21.9 17.3 75 2.8 NNW 13 20 7 11 1013.4 1013.4 0.0
24/01:30am 21.9 21.3 17.5 76 2.7 N 17 22 9 12 1013.3 1013.3 0.0
24/01:00am 22.1 21.2 16.8 72 3.2 N 17 24 9 13 1013.3 1013.3 0.0
24/12:30am 22.0 21.3 17.4 75 2.8 N 17 24 9 13 1013.4 1013.4 0.0
24/12:00am 22.2 21.2 16.7 71 3.4 N 17 24 9 13 1013.7 1013.7 0.0
 
Date/Time
EST
Temp
°C
App
Temp
°C
Dew
Point
°C
Rel
Hum
%
Delta-T
°C
Wind Press
QNH
hPa
Press
MSL
hPa
Rain since
9am
mm
Dir  Spd
km/h
Gust
km/h
Spd
kts
Gust
kts
23/11:30pm 22.0 21.0 16.7 72 3.2 N 17 24 9 13 1014.0 1014.0 0.0
23/11:00pm 21.9 21.7 16.6 72 3.2 N 13 19 7 10 1014.1 1014.1 0.0
23/10:30pm 21.7 21.4 16.4 72 3.2 N 13 20 7 11 1014.2 1014.2 0.0
23/10:00pm 21.8 20.9 15.9 69 3.5 N 15 26 8 14 1014.3 1014.3 0.0
23/09:30pm 21.7 20.9 16.2 71 3.3 N 15 22 8 12 1014.2 1014.2 0.0
23/09:00pm 21.6 21.2 16.3 72 3.2 N 13 19 7 10 1014.4 1014.4 0.0
23/08:30pm 21.3 21.2 16.9 76 2.7 N 13 20 7 11 1014.4 1014.4 0.0
23/08:00pm 21.2 21.4 16.8 76 2.7 N 11 17 6 9 1014.4 1014.4 0.0
23/07:30pm 20.8 21.3 16.6 77 2.5 NNE 9 13 5 7 1014.4 1014.4 0.0
23/07:00pm 20.6 21.4 16.4 77 2.5 NNE 7 13 4 7 1014.2 1014.2 0.0
23/06:30pm 20.5 20.9 16.3 77 2.5 NNE 9 13 5 7 1013.8 1013.8 0.0

Other Formats:

Comma delimited format used in spreadsheet applications
http://www.bom.gov.au/fwo/IDQ60801/IDQ60801.94388.axf

JavaScript Object Notation format (JSON) in row-major order
http://www.bom.gov.au/fwo/IDQ60801/IDQ60801.94388.json